sensor_id;sensor_type;location;lat;lon;timestamp;P1;durP1;ratioP1;P2;durP2;ratioP2
10162;SDS011;5123;52.556;13.384;2022-08-19T00:02:14;14.80;;;13.30;;
10162;SDS011;5123;52.556;13.384;2022-08-19T00:05:06;14.80;;;13.47;;
10162;SDS011;5123;52.556;13.384;2022-08-19T00:07:59;14.00;;;12.70;;
10162;SDS011;5123;52.556;13.384;2022-08-19T00:10:51;15.73;;;14.33;;
10162;SDS011;5123;52.556;13.384;2022-08-19T00:13:42;14.80;;;13.40;;
10162;SDS011;5123;52.556;13.384;2022-08-19T00:16:36;14.97;;;13.57;;
10162;SDS011;5123;52.556;13.384;2022-08-19T00:19:27;14.20;;;13.00;;
10162;SDS011;5123;52.556;13.384;2022-08-19T00:22:19;16.07;;;14.67;;
10162;SDS011;5123;52.556;13.384;2022-08-19T00:25:11;15.80;;;14.20;;
10162;SDS011;5123;52.556;13.384;2022-08-19T00:28:04;15.20;;;13.87;;
10162;SDS011;5123;52.556;13.384;2022-08-19T00:30:56;16.13;;;14.70;;
10162;SDS011;5123;52.556;13.384;2022-08-19T00:33:47;15.10;;;13.50;;
10162;SDS011;5123;52.556;13.384;2022-08-19T00:36:40;15.73;;;14.23;;
10162;SDS011;5123;52.556;13.384;2022-08-19T00:39:31;15.60;;;13.97;;
10162;SDS011;5123;52.556;13.384;2022-08-19T00:42:24;16.63;;;15.00;;
10162;SDS011;5123;52.556;13.384;2022-08-19T00:45:20;17.83;;;16.13;;
10162;SDS011;5123;52.556;13.384;2022-08-19T00:48:11;18.47;;;16.77;;
10162;SDS011;5123;52.556;13.384;2022-08-19T00:51:04;17.83;;;16.10;;
10162;SDS011;5123;52.556;13.384;2022-08-19T00:53:56;18.37;;;16.77;;
10162;SDS011;5123;52.556;13.384;2022-08-19T00:56:48;18.00;;;16.33;;
10162;SDS011;5123;52.556;13.384;2022-08-19T00:59:46;15.67;;;14.17;;
10162;SDS011;5123;52.556;13.384;2022-08-19T01:02:51;16.20;;;14.70;;
10162;SDS011;5123;52.556;13.384;2022-08-19T01:05:44;16.73;;;13.87;;
10162;SDS011;5123;52.556;13.384;2022-08-19T01:08:35;15.33;;;13.73;;
10162;SDS011;5123;52.556;13.384;2022-08-19T01:11:27;14.27;;;12.97;;
10162;SDS011;5123;52.556;13.384;2022-08-19T01:14:18;14.80;;;13.47;;
10162;SDS011;5123;52.556;13.384;2022-08-19T01:17:11;15.53;;;13.80;;
10162;SDS011;5123;52.556;13.384;2022-08-19T01:20:03;15.80;;;14.40;;
10162;SDS011;5123;52.556;13.384;2022-08-19T01:22:57;14.83;;;13.33;;
10162;SDS011;5123;52.556;13.384;2022-08-19T01:25:50;14.87;;;13.57;;
10162;SDS011;5123;52.556;13.384;2022-08-19T01:28:41;15.37;;;13.97;;
10162;SDS011;5123;52.556;13.384;2022-08-19T01:31:34;15.90;;;14.50;;
10162;SDS011;5123;52.556;13.384;2022-08-19T01:34:27;15.87;;;14.23;;
10162;SDS011;5123;52.556;13.384;2022-08-19T01:37:18;15.57;;;14.13;;
10162;SDS011;5123;52.556;13.384;2022-08-19T01:40:18;16.27;;;14.73;;
10162;SDS011;5123;52.556;13.384;2022-08-19T01:43:12;17.03;;;15.33;;
10162;SDS011;5123;52.556;13.384;2022-08-19T01:46:03;18.13;;;16.23;;
10162;SDS011;5123;52.556;13.384;2022-08-19T01:48:55;18.13;;;16.37;;
10162;SDS011;5123;52.556;13.384;2022-08-19T01:51:46;20.43;;;16.13;;
10162;SDS011;5123;52.556;13.384;2022-08-19T01:54:39;18.83;;;16.83;;
10162;SDS011;5123;52.556;13.384;2022-08-19T01:57:31;18.23;;;16.33;;
10162;SDS011;5123;52.556;13.384;2022-08-19T02:00:23;17.33;;;15.57;;
10162;SDS011;5123;52.556;13.384;2022-08-19T02:03:16;20.00;;;18.07;;
10162;SDS011;5123;52.556;13.384;2022-08-19T02:06:07;20.07;;;17.03;;
10162;SDS011;5123;52.556;13.384;2022-08-19T02:09:00;19.00;;;17.23;;
10162;SDS011;5123;52.556;13.384;2022-08-19T02:11:51;18.87;;;16.93;;
10162;SDS011;5123;52.556;13.384;2022-08-19T02:14:44;20.50;;;18.37;;
10162;SDS011;5123;52.556;13.384;2022-08-19T02:17:36;20.23;;;18.23;;
10162;SDS011;5123;52.556;13.384;2022-08-19T02:20:27;19.40;;;17.50;;
10162;SDS011;5123;52.556;13.384;2022-08-19T02:23:19;17.70;;;15.87;;
10162;SDS011;5123;52.556;13.384;2022-08-19T02:26:11;18.50;;;16.70;;
10162;SDS011;5123;52.556;13.384;2022-08-19T02:29:02;17.83;;;16.03;;
10162;SDS011;5123;52.556;13.384;2022-08-19T02:31:55;16.37;;;14.80;;
10162;SDS011;5123;52.556;13.384;2022-08-19T02:34:47;16.47;;;14.77;;
10162;SDS011;5123;52.556;13.384;2022-08-19T02:37:39;17.47;;;15.63;;
10162;SDS011;5123;52.556;13.384;2022-08-19T02:40:48;17.30;;;14.87;;
10162;SDS011;5123;52.556;13.384;2022-08-19T02:43:41;16.53;;;14.93;;
10162;SDS011;5123;52.556;13.384;2022-08-19T02:46:53;16.43;;;14.73;;
10162;SDS011;5123;52.556;13.384;2022-08-19T02:49:47;16.37;;;14.87;;
10162;SDS011;5123;52.556;13.384;2022-08-19T02:52:39;16.80;;;15.20;;
10162;SDS011;5123;52.556;13.384;2022-08-19T02:55:31;16.07;;;14.67;;
10162;SDS011;5123;52.556;13.384;2022-08-19T02:58:35;17.60;;;15.90;;
10162;SDS011;5123;52.556;13.384;2022-08-19T03:01:28;18.13;;;16.53;;
10162;SDS011;5123;52.556;13.384;2022-08-19T03:04:19;17.43;;;15.90;;
10162;SDS011;5123;52.556;13.384;2022-08-19T03:07:14;18.50;;;16.70;;
10162;SDS011;5123;52.556;13.384;2022-08-19T03:10:06;18.90;;;16.97;;
10162;SDS011;5123;52.556;13.384;2022-08-19T03:12:58;18.97;;;17.17;;
10162;SDS011;5123;52.556;13.384;2022-08-19T03:15:53;18.03;;;16.20;;
10162;SDS011;5123;52.556;13.384;2022-08-19T03:18:45;16.90;;;15.30;;
10162;SDS011;5123;52.556;13.384;2022-08-19T03:21:36;18.20;;;16.50;;
10162;SDS011;5123;52.556;13.384;2022-08-19T03:24:29;17.90;;;16.30;;
10162;SDS011;5123;52.556;13.384;2022-08-19T03:27:20;19.43;;;17.60;;
10162;SDS011;5123;52.556;13.384;2022-08-19T03:30:12;17.90;;;16.30;;
10162;SDS011;5123;52.556;13.384;2022-08-19T03:33:12;17.93;;;16.33;;
10162;SDS011;5123;52.556;13.384;2022-08-19T03:36:18;17.90;;;16.20;;
10162;SDS011;5123;52.556;13.384;2022-08-19T03:39:10;18.30;;;16.60;;
10162;SDS011;5123;52.556;13.384;2022-08-19T03:42:04;19.37;;;17.63;;
10162;SDS011;5123;52.556;13.384;2022-08-19T03:45:15;18.37;;;16.57;;
10162;SDS011;5123;52.556;13.384;2022-08-19T03:48:06;19.33;;;17.43;;
10162;SDS011;5123;52.556;13.384;2022-08-19T03:50:58;18.13;;;16.47;;
10162;SDS011;5123;52.556;13.384;2022-08-19T03:53:50;19.47;;;17.47;;
10162;SDS011;5123;52.556;13.384;2022-08-19T03:56:42;18.47;;;16.63;;
10162;SDS011;5123;52.556;13.384;2022-08-19T03:59:35;18.23;;;16.50;;
10162;SDS011;5123;52.556;13.384;2022-08-19T04:02:27;17.63;;;16.03;;
10162;SDS011;5123;52.556;13.384;2022-08-19T04:05:18;17.90;;;16.10;;
10162;SDS011;5123;52.556;13.384;2022-08-19T04:08:13;17.63;;;16.00;;
10162;SDS011;5123;52.556;13.384;2022-08-19T04:11:13;18.50;;;16.80;;
10162;SDS011;5123;52.556;13.384;2022-08-19T04:14:04;19.40;;;17.50;;
10162;SDS011;5123;52.556;13.384;2022-08-19T04:16:57;17.97;;;15.83;;
10162;SDS011;5123;52.556;13.384;2022-08-19T04:19:49;18.47;;;16.57;;
10162;SDS011;5123;52.556;13.384;2022-08-19T04:22:40;19.43;;;17.43;;
10162;SDS011;5123;52.556;13.384;2022-08-19T04:25:34;17.60;;;16.00;;
10162;SDS011;5123;52.556;13.384;2022-08-19T04:28:25;17.77;;;16.17;;
10162;SDS011;5123;52.556;13.384;2022-08-19T04:31:17;18.57;;;16.87;;
10162;SDS011;5123;52.556;13.384;2022-08-19T04:34:11;18.10;;;16.30;;
10162;SDS011;5123;52.556;13.384;2022-08-19T04:37:04;17.43;;;15.73;;
10162;SDS011;5123;52.556;13.384;2022-08-19T04:39:57;17.60;;;16.00;;
10162;SDS011;5123;52.556;13.384;2022-08-19T04:43:06;16.80;;;15.20;;
10162;SDS011;5123;52.556;13.384;2022-08-19T04:45:59;18.67;;;17.07;;
10162;SDS011;5123;52.556;13.384;2022-08-19T04:48:55;18.17;;;16.57;;
10162;SDS011;5123;52.556;13.384;2022-08-19T04:51:49;17.67;;;16.07;;
10162;SDS011;5123;52.556;13.384;2022-08-19T04:54:41;17.73;;;15.93;;
10162;SDS011;5123;52.556;13.384;2022-08-19T04:57:32;18.13;;;16.43;;
10162;SDS011;5123;52.556;13.384;2022-08-19T05:00:23;16.23;;;14.83;;
10162;SDS011;5123;52.556;13.384;2022-08-19T05:03:15;17.17;;;15.60;;
10162;SDS011;5123;52.556;13.384;2022-08-19T05:06:07;17.10;;;15.43;;
10162;SDS011;5123;52.556;13.384;2022-08-19T05:09:02;16.77;;;15.13;;
10162;SDS011;5123;52.556;13.384;2022-08-19T05:11:54;16.30;;;14.90;;
10162;SDS011;5123;52.556;13.384;2022-08-19T05:14:46;16.53;;;15.03;;
10162;SDS011;5123;52.556;13.384;2022-08-19T05:17:37;16.40;;;14.90;;
10162;SDS011;5123;52.556;13.384;2022-08-19T05:20:49;17.80;;;15.97;;
10162;SDS011;5123;52.556;13.384;2022-08-19T05:23:57;15.17;;;13.63;;
10162;SDS011;5123;52.556;13.384;2022-08-19T05:26:50;17.10;;;15.40;;
10162;SDS011;5123;52.556;13.384;2022-08-19T05:29:42;16.60;;;15.10;;
10162;SDS011;5123;52.556;13.384;2022-08-19T05:32:33;16.70;;;15.20;;
10162;SDS011;5123;52.556;13.384;2022-08-19T05:35:25;17.00;;;15.37;;
10162;SDS011;5123;52.556;13.384;2022-08-19T05:38:16;16.40;;;14.57;;
10162;SDS011;5123;52.556;13.384;2022-08-19T05:41:08;15.73;;;14.13;;
10162;SDS011;5123;52.556;13.384;2022-08-19T05:44:02;16.43;;;14.93;;
10162;SDS011;5123;52.556;13.384;2022-08-19T05:46:55;15.70;;;14.20;;
10162;SDS011;5123;52.556;13.384;2022-08-19T05:49:47;17.00;;;15.30;;
10162;SDS011;5123;52.556;13.384;2022-08-19T05:52:40;17.13;;;15.63;;
10162;SDS011;5123;52.556;13.384;2022-08-19T05:55:39;16.63;;;15.03;;
10162;SDS011;5123;52.556;13.384;2022-08-19T05:58:31;16.63;;;15.00;;
10162;SDS011;5123;52.556;13.384;2022-08-19T06:01:25;17.20;;;15.53;;
10162;SDS011;5123;52.556;13.384;2022-08-19T06:04:17;16.43;;;14.93;;
10162;SDS011;5123;52.556;13.384;2022-08-19T06:07:09;16.63;;;15.10;;
10162;SDS011;5123;52.556;13.384;2022-08-19T06:10:05;17.27;;;15.57;;
10162;SDS011;5123;52.556;13.384;2022-08-19T06:12:57;16.93;;;15.40;;
10162;SDS011;5123;52.556;13.384;2022-08-19T06:15:48;17.57;;;15.77;;
10162;SDS011;5123;52.556;13.384;2022-08-19T06:18:41;17.80;;;15.73;;
10162;SDS011;5123;52.556;13.384;2022-08-19T06:21:34;17.37;;;15.87;;
10162;SDS011;5123;52.556;13.384;2022-08-19T06:24:27;17.97;;;16.07;;
10162;SDS011;5123;52.556;13.384;2022-08-19T06:27:19;18.00;;;16.17;;
10162;SDS011;5123;52.556;13.384;2022-08-19T06:30:11;18.27;;;16.40;;
10162;SDS011;5123;52.556;13.384;2022-08-19T06:33:02;17.27;;;15.77;;
10162;SDS011;5123;52.556;13.384;2022-08-19T06:35:54;19.97;;;17.97;;
10162;SDS011;5123;52.556;13.384;2022-08-19T06:38:45;17.67;;;15.97;;
10162;SDS011;5123;52.556;13.384;2022-08-19T06:41:37;19.10;;;17.20;;
10162;SDS011;5123;52.556;13.384;2022-08-19T06:44:40;18.23;;;16.53;;
10162;SDS011;5123;52.556;13.384;2022-08-19T06:47:37;19.97;;;17.53;;
10162;SDS011;5123;52.556;13.384;2022-08-19T06:50:28;18.80;;;17.20;;
10162;SDS011;5123;52.556;13.384;2022-08-19T06:53:20;18.60;;;17.00;;
10162;SDS011;5123;52.556;13.384;2022-08-19T06:56:13;19.80;;;18.00;;
10162;SDS011;5123;52.556;13.384;2022-08-19T06:59:05;18.80;;;17.03;;
10162;SDS011;5123;52.556;13.384;2022-08-19T07:01:57;19.63;;;17.73;;
10162;SDS011;5123;52.556;13.384;2022-08-19T07:04:48;19.70;;;18.00;;
10162;SDS011;5123;52.556;13.384;2022-08-19T07:07:41;20.93;;;19.07;;
10162;SDS011;5123;52.556;13.384;2022-08-19T07:10:37;20.43;;;18.53;;
10162;SDS011;5123;52.556;13.384;2022-08-19T07:13:33;20.70;;;18.70;;
10162;SDS011;5123;52.556;13.384;2022-08-19T07:16:26;20.47;;;18.67;;
10162;SDS011;5123;52.556;13.384;2022-08-19T07:19:18;20.90;;;19.10;;
10162;SDS011;5123;52.556;13.384;2022-08-19T07:22:10;20.03;;;18.33;;
10162;SDS011;5123;52.556;13.384;2022-08-19T07:25:02;20.23;;;18.43;;
10162;SDS011;5123;52.556;13.384;2022-08-19T07:27:55;20.13;;;18.07;;
10162;SDS011;5123;52.556;13.384;2022-08-19T07:30:50;20.17;;;18.37;;
10162;SDS011;5123;52.556;13.384;2022-08-19T07:33:41;20.97;;;19.07;;
10162;SDS011;5123;52.556;13.384;2022-08-19T07:36:33;20.47;;;18.67;;
10162;SDS011;5123;52.556;13.384;2022-08-19T07:39:26;21.17;;;19.13;;
10162;SDS011;5123;52.556;13.384;2022-08-19T07:42:18;21.83;;;19.93;;
10162;SDS011;5123;52.556;13.384;2022-08-19T07:45:12;19.97;;;18.17;;
10162;SDS011;5123;52.556;13.384;2022-08-19T07:48:05;20.57;;;18.73;;
10162;SDS011;5123;52.556;13.384;2022-08-19T07:50:59;21.53;;;19.43;;
10162;SDS011;5123;52.556;13.384;2022-08-19T07:53:51;22.17;;;20.03;;
10162;SDS011;5123;52.556;13.384;2022-08-19T07:56:42;22.33;;;20.37;;
10162;SDS011;5123;52.556;13.384;2022-08-19T07:59:34;21.87;;;19.80;;
10162;SDS011;5123;52.556;13.384;2022-08-19T08:02:27;20.60;;;18.80;;
10162;SDS011;5123;52.556;13.384;2022-08-19T08:05:18;21.67;;;19.67;;
10162;SDS011;5123;52.556;13.384;2022-08-19T08:08:32;22.40;;;20.27;;
10162;SDS011;5123;52.556;13.384;2022-08-19T08:11:44;22.60;;;20.40;;
10162;SDS011;5123;52.556;13.384;2022-08-19T08:14:39;21.77;;;19.87;;
10162;SDS011;5123;52.556;13.384;2022-08-19T08:17:37;24.50;;;22.20;;
10162;SDS011;5123;52.556;13.384;2022-08-19T08:20:40;23.33;;;21.37;;
10162;SDS011;5123;52.556;13.384;2022-08-19T08:23:31;23.87;;;21.40;;
10162;SDS011;5123;52.556;13.384;2022-08-19T08:26:23;23.73;;;21.53;;
10162;SDS011;5123;52.556;13.384;2022-08-19T08:29:15;24.77;;;22.57;;
10162;SDS011;5123;52.556;13.384;2022-08-19T08:32:06;27.13;;;24.43;;
10162;SDS011;5123;52.556;13.384;2022-08-19T08:35:06;23.53;;;21.40;;
10162;SDS011;5123;52.556;13.384;2022-08-19T08:37:58;23.50;;;21.50;;
10162;SDS011;5123;52.556;13.384;2022-08-19T08:40:50;24.50;;;22.33;;
10162;SDS011;5123;52.556;13.384;2022-08-19T08:43:44;23.47;;;21.27;;
10162;SDS011;5123;52.556;13.384;2022-08-19T08:46:37;24.63;;;22.33;;
10162;SDS011;5123;52.556;13.384;2022-08-19T08:49:33;24.63;;;22.23;;
10162;SDS011;5123;52.556;13.384;2022-08-19T08:52:30;22.13;;;20.13;;
10162;SDS011;5123;52.556;13.384;2022-08-19T08:55:26;23.53;;;21.47;;
10162;SDS011;5123;52.556;13.384;2022-08-19T08:58:27;21.63;;;19.67;;
10162;SDS011;5123;52.556;13.384;2022-08-19T09:01:20;23.40;;;21.10;;
10162;SDS011;5123;52.556;13.384;2022-08-19T09:04:13;23.00;;;20.90;;
10162;SDS011;5123;52.556;13.384;2022-08-19T09:07:17;22.90;;;20.57;;
10162;SDS011;5123;52.556;13.384;2022-08-19T09:10:27;20.90;;;18.80;;
10162;SDS011;5123;52.556;13.384;2022-08-19T09:13:21;20.93;;;19.17;;
10162;SDS011;5123;52.556;13.384;2022-08-19T09:16:19;21.33;;;19.53;;
10162;SDS011;5123;52.556;13.384;2022-08-19T09:19:17;21.37;;;19.57;;
10162;SDS011;5123;52.556;13.384;2022-08-19T09:22:11;19.20;;;17.50;;
10162;SDS011;5123;52.556;13.384;2022-08-19T09:25:15;20.53;;;18.63;;
10162;SDS011;5123;52.556;13.384;2022-08-19T09:28:17;20.37;;;18.47;;
10162;SDS011;5123;52.556;13.384;2022-08-19T09:31:17;19.87;;;17.97;;
10162;SDS011;5123;52.556;13.384;2022-08-19T09:34:08;19.33;;;17.50;;
10162;SDS011;5123;52.556;13.384;2022-08-19T09:37:11;19.30;;;17.50;;
10162;SDS011;5123;52.556;13.384;2022-08-19T09:40:04;22.37;;;20.47;;
10162;SDS011;5123;52.556;13.384;2022-08-19T09:42:58;18.27;;;16.47;;
10162;SDS011;5123;52.556;13.384;2022-08-19T09:46:03;20.03;;;18.07;;
10162;SDS011;5123;52.556;13.384;2022-08-19T09:48:56;19.30;;;17.60;;
10162;SDS011;5123;52.556;13.384;2022-08-19T09:51:55;17.60;;;16.10;;
10162;SDS011;5123;52.556;13.384;2022-08-19T09:54:46;19.03;;;17.33;;
10162;SDS011;5123;52.556;13.384;2022-08-19T09:57:40;18.90;;;17.20;;
10162;SDS011;5123;52.556;13.384;2022-08-19T10:00:32;18.93;;;17.03;;
10162;SDS011;5123;52.556;13.384;2022-08-19T10:03:24;17.23;;;15.83;;
10162;SDS011;5123;52.556;13.384;2022-08-19T10:06:19;17.80;;;16.30;;
10162;SDS011;5123;52.556;13.384;2022-08-19T10:09:31;18.07;;;16.43;;
10162;SDS011;5123;52.556;13.384;2022-08-19T10:12:24;18.73;;;16.87;;
10162;SDS011;5123;52.556;13.384;2022-08-19T10:15:16;17.93;;;16.33;;
10162;SDS011;5123;52.556;13.384;2022-08-19T10:18:19;18.07;;;16.40;;
10162;SDS011;5123;52.556;13.384;2022-08-19T10:21:13;17.63;;;15.83;;
10162;SDS011;5123;52.556;13.384;2022-08-19T10:24:05;18.27;;;16.57;;
10162;SDS011;5123;52.556;13.384;2022-08-19T10:26:58;17.93;;;16.13;;
10162;SDS011;5123;52.556;13.384;2022-08-19T10:29:50;19.80;;;17.40;;
10162;SDS011;5123;52.556;13.384;2022-08-19T10:32:43;17.70;;;16.10;;
10162;SDS011;5123;52.556;13.384;2022-08-19T10:35:36;18.77;;;17.03;;
10162;SDS011;5123;52.556;13.384;2022-08-19T10:38:47;19.17;;;17.13;;
10162;SDS011;5123;52.556;13.384;2022-08-19T10:41:45;18.70;;;17.07;;
10162;SDS011;5123;52.556;13.384;2022-08-19T10:44:36;18.87;;;16.97;;
10162;SDS011;5123;52.556;13.384;2022-08-19T10:47:28;17.80;;;16.20;;
10162;SDS011;5123;52.556;13.384;2022-08-19T10:50:21;18.00;;;16.37;;
10162;SDS011;5123;52.556;13.384;2022-08-19T10:53:30;17.70;;;16.10;;
10162;SDS011;5123;52.556;13.384;2022-08-19T10:56:23;18.10;;;16.33;;
10162;SDS011;5123;52.556;13.384;2022-08-19T10:59:32;17.23;;;15.50;;
10162;SDS011;5123;52.556;13.384;2022-08-19T11:02:25;18.07;;;16.57;;
10162;SDS011;5123;52.556;13.384;2022-08-19T11:05:16;18.10;;;16.20;;
10162;SDS011;5123;52.556;13.384;2022-08-19T11:08:08;16.63;;;15.23;;
10162;SDS011;5123;52.556;13.384;2022-08-19T11:11:12;17.17;;;15.57;;
10162;SDS011;5123;52.556;13.384;2022-08-19T11:14:05;17.10;;;15.63;;
10162;SDS011;5123;52.556;13.384;2022-08-19T11:16:57;17.47;;;15.77;;
10162;SDS011;5123;52.556;13.384;2022-08-19T11:19:48;15.73;;;14.30;;
10162;SDS011;5123;52.556;13.384;2022-08-19T11:22:40;17.53;;;15.93;;
10162;SDS011;5123;52.556;13.384;2022-08-19T11:25:32;16.83;;;15.30;;
10162;SDS011;5123;52.556;13.384;2022-08-19T11:28:24;17.87;;;16.00;;
10162;SDS011;5123;52.556;13.384;2022-08-19T11:31:17;17.13;;;15.43;;
10162;SDS011;5123;52.556;13.384;2022-08-19T11:34:10;17.73;;;16.13;;
10162;SDS011;5123;52.556;13.384;2022-08-19T11:37:03;16.47;;;14.97;;
10162;SDS011;5123;52.556;13.384;2022-08-19T11:39:55;18.07;;;16.40;;
10162;SDS011;5123;52.556;13.384;2022-08-19T11:42:47;18.20;;;16.50;;
10162;SDS011;5123;52.556;13.384;2022-08-19T11:46:06;15.63;;;14.23;;
10162;SDS011;5123;52.556;13.384;2022-08-19T11:48:59;17.93;;;14.50;;
10162;SDS011;5123;52.556;13.384;2022-08-19T11:51:51;15.60;;;14.20;;
10162;SDS011;5123;52.556;13.384;2022-08-19T11:54:43;15.17;;;13.83;;
10162;SDS011;5123;52.556;13.384;2022-08-19T11:57:34;16.27;;;14.43;;
10162;SDS011;5123;52.556;13.384;2022-08-19T12:00:25;14.73;;;13.23;;
10162;SDS011;5123;52.556;13.384;2022-08-19T12:03:17;16.50;;;14.80;;
10162;SDS011;5123;52.556;13.384;2022-08-19T12:06:12;13.57;;;12.37;;
10162;SDS011;5123;52.556;13.384;2022-08-19T12:09:05;13.77;;;12.47;;
10162;SDS011;5123;52.556;13.384;2022-08-19T12:11:57;13.13;;;11.90;;
10162;SDS011;5123;52.556;13.384;2022-08-19T12:14:49;13.17;;;12.03;;
10162;SDS011;5123;52.556;13.384;2022-08-19T12:17:46;12.60;;;11.50;;
10162;SDS011;5123;52.556;13.384;2022-08-19T12:20:38;14.57;;;13.20;;
10162;SDS011;5123;52.556;13.384;2022-08-19T12:23:31;12.80;;;11.43;;
10162;SDS011;5123;52.556;13.384;2022-08-19T12:26:22;12.23;;;11.20;;
10162;SDS011;5123;52.556;13.384;2022-08-19T12:29:14;11.60;;;10.57;;
10162;SDS011;5123;52.556;13.384;2022-08-19T12:32:12;11.10;;;10.13;;
10162;SDS011;5123;52.556;13.384;2022-08-19T12:35:03;11.30;;;10.27;;
10162;SDS011;5123;52.556;13.384;2022-08-19T12:37:55;11.93;;;10.83;;
10162;SDS011;5123;52.556;13.384;2022-08-19T12:40:48;11.63;;;10.63;;
10162;SDS011;5123;52.556;13.384;2022-08-19T12:43:45;12.20;;;11.10;;
10162;SDS011;5123;52.556;13.384;2022-08-19T12:46:38;11.77;;;10.67;;
10162;SDS011;5123;52.556;13.384;2022-08-19T12:49:32;12.40;;;10.60;;
10162;SDS011;5123;52.556;13.384;2022-08-19T12:52:44;12.13;;;11.07;;
10162;SDS011;5123;52.556;13.384;2022-08-19T12:55:35;11.77;;;10.77;;
10162;SDS011;5123;52.556;13.384;2022-08-19T12:58:28;12.02;;;10.93;;
10162;SDS011;5123;52.556;13.384;2022-08-19T13:01:20;13.93;;;12.73;;
10162;SDS011;5123;52.556;13.384;2022-08-19T13:04:12;26.70;;;24.07;;
10162;SDS011;5123;52.556;13.384;2022-08-19T13:07:03;15.20;;;14.00;;
10162;SDS011;5123;52.556;13.384;2022-08-19T13:09:55;13.77;;;12.38;;
10162;SDS011;5123;52.556;13.384;2022-08-19T13:12:48;13.15;;;11.88;;
10162;SDS011;5123;52.556;13.384;2022-08-19T13:15:41;13.97;;;12.60;;
10162;SDS011;5123;52.556;13.384;2022-08-19T13:18:36;12.57;;;11.43;;
10162;SDS011;5123;52.556;13.384;2022-08-19T13:21:28;13.05;;;11.93;;
10162;SDS011;5123;52.556;13.384;2022-08-19T13:24:20;12.68;;;11.55;;
10162;SDS011;5123;52.556;13.384;2022-08-19T13:27:16;16.10;;;14.57;;
10162;SDS011;5123;52.556;13.384;2022-08-19T13:30:08;12.10;;;11.10;;
10162;SDS011;5123;52.556;13.384;2022-08-19T13:33:19;13.17;;;11.93;;
10162;SDS011;5123;52.556;13.384;2022-08-19T13:36:10;13.40;;;12.30;;
10162;SDS011;5123;52.556;13.384;2022-08-19T13:39:02;12.65;;;11.55;;
10162;SDS011;5123;52.556;13.384;2022-08-19T13:41:54;17.50;;;15.98;;
10162;SDS011;5123;52.556;13.384;2022-08-19T13:44:52;12.43;;;11.43;;
10162;SDS011;5123;52.556;13.384;2022-08-19T13:47:45;13.15;;;12.05;;
10162;SDS011;5123;52.556;13.384;2022-08-19T13:50:39;13.57;;;12.33;;
10162;SDS011;5123;52.556;13.384;2022-08-19T13:53:31;14.53;;;13.30;;
10162;SDS011;5123;52.556;13.384;2022-08-19T13:56:22;13.33;;;12.03;;
10162;SDS011;5123;52.556;13.384;2022-08-19T13:59:15;13.60;;;12.20;;
10162;SDS011;5123;52.556;13.384;2022-08-19T14:02:08;12.93;;;11.80;;
10162;SDS011;5123;52.556;13.384;2022-08-19T14:05:00;12.67;;;11.33;;
10162;SDS011;5123;52.556;13.384;2022-08-19T14:07:55;14.00;;;12.67;;
10162;SDS011;5123;52.556;13.384;2022-08-19T14:10:47;13.70;;;12.50;;
10162;SDS011;5123;52.556;13.384;2022-08-19T14:13:38;13.23;;;12.13;;
10162;SDS011;5123;52.556;13.384;2022-08-19T14:16:29;14.70;;;13.27;;
10162;SDS011;5123;52.556;13.384;2022-08-19T14:19:21;14.10;;;12.90;;
10162;SDS011;5123;52.556;13.384;2022-08-19T14:22:12;12.33;;;11.23;;
10162;SDS011;5123;52.556;13.384;2022-08-19T14:25:13;12.67;;;11.47;;
10162;SDS011;5123;52.556;13.384;2022-08-19T14:28:05;13.23;;;12.17;;
10162;SDS011;5123;52.556;13.384;2022-08-19T14:30:56;12.07;;;10.97;;
10162;SDS011;5123;52.556;13.384;2022-08-19T14:33:48;12.60;;;11.50;;
10162;SDS011;5123;52.556;13.384;2022-08-19T14:36:40;11.67;;;10.63;;
10162;SDS011;5123;52.556;13.384;2022-08-19T14:39:31;12.50;;;11.50;;
10162;SDS011;5123;52.556;13.384;2022-08-19T14:42:24;11.20;;;10.10;;
10162;SDS011;5123;52.556;13.384;2022-08-19T14:45:16;10.70;;;9.80;;
10162;SDS011;5123;52.556;13.384;2022-08-19T14:48:08;12.50;;;11.40;;
10162;SDS011;5123;52.556;13.384;2022-08-19T14:51:08;11.80;;;10.80;;
10162;SDS011;5123;52.556;13.384;2022-08-19T14:53:59;12.20;;;11.10;;
10162;SDS011;5123;52.556;13.384;2022-08-19T14:56:51;11.87;;;10.77;;
10162;SDS011;5123;52.556;13.384;2022-08-19T14:59:43;12.70;;;11.40;;
10162;SDS011;5123;52.556;13.384;2022-08-19T15:02:34;11.53;;;10.57;;
10162;SDS011;5123;52.556;13.384;2022-08-19T15:05:26;11.13;;;10.10;;
10162;SDS011;5123;52.556;13.384;2022-08-19T15:08:17;11.03;;;10.13;;
10162;SDS011;5123;52.556;13.384;2022-08-19T15:11:11;9.87;;;9.07;;
10162;SDS011;5123;52.556;13.384;2022-08-19T15:14:04;11.23;;;10.23;;
10162;SDS011;5123;52.556;13.384;2022-08-19T15:16:58;11.50;;;10.40;;
10162;SDS011;5123;52.556;13.384;2022-08-19T15:19:49;11.70;;;10.60;;
10162;SDS011;5123;52.556;13.384;2022-08-19T15:22:41;12.37;;;10.87;;
10162;SDS011;5123;52.556;13.384;2022-08-19T15:25:32;11.70;;;10.60;;
10162;SDS011;5123;52.556;13.384;2022-08-19T15:28:25;11.33;;;10.30;;
10162;SDS011;5123;52.556;13.384;2022-08-19T15:31:18;12.57;;;11.53;;
10162;SDS011;5123;52.556;13.384;2022-08-19T15:34:18;12.00;;;11.00;;
10162;SDS011;5123;52.556;13.384;2022-08-19T15:37:10;11.63;;;10.63;;
10162;SDS011;5123;52.556;13.384;2022-08-19T15:40:02;13.57;;;11.13;;
10162;SDS011;5123;52.556;13.384;2022-08-19T15:42:54;13.03;;;11.87;;
10162;SDS011;5123;52.556;13.384;2022-08-19T15:45:47;11.83;;;10.83;;
10162;SDS011;5123;52.556;13.384;2022-08-19T15:48:39;13.93;;;10.30;;
10162;SDS011;5123;52.556;13.384;2022-08-19T15:51:32;12.13;;;11.07;;
10162;SDS011;5123;52.556;13.384;2022-08-19T15:54:25;12.27;;;11.10;;
10162;SDS011;5123;52.556;13.384;2022-08-19T15:57:16;12.90;;;11.70;;
10162;SDS011;5123;52.556;13.384;2022-08-19T16:00:24;12.63;;;11.40;;
10162;SDS011;5123;52.556;13.384;2022-08-19T16:03:41;11.77;;;10.77;;
10162;SDS011;5123;52.556;13.384;2022-08-19T16:06:53;11.77;;;10.77;;
10162;SDS011;5123;52.556;13.384;2022-08-19T16:09:44;12.23;;;11.10;;
10162;SDS011;5123;52.556;13.384;2022-08-19T16:12:35;11.90;;;10.90;;
10162;SDS011;5123;52.556;13.384;2022-08-19T16:15:29;12.87;;;11.80;;
10162;SDS011;5123;52.556;13.384;2022-08-19T16:18:22;12.30;;;11.20;;
10162;SDS011;5123;52.556;13.384;2022-08-19T16:21:15;13.13;;;11.83;;
10162;SDS011;5123;52.556;13.384;2022-08-19T16:24:09;12.80;;;11.60;;
10162;SDS011;5123;52.556;13.384;2022-08-19T16:27:01;14.90;;;13.07;;
10162;SDS011;5123;52.556;13.384;2022-08-19T16:29:52;20.60;;;18.30;;
10162;SDS011;5123;52.556;13.384;2022-08-19T16:32:43;12.77;;;11.57;;
10162;SDS011;5123;52.556;13.384;2022-08-19T16:35:34;14.17;;;12.87;;
10162;SDS011;5123;52.556;13.384;2022-08-19T16:38:26;12.47;;;11.23;;
10162;SDS011;5123;52.556;13.384;2022-08-19T16:41:19;13.37;;;12.17;;
10162;SDS011;5123;52.556;13.384;2022-08-19T16:44:11;13.50;;;12.20;;
10162;SDS011;5123;52.556;13.384;2022-08-19T16:47:03;14.27;;;12.97;;
10162;SDS011;5123;52.556;13.384;2022-08-19T16:49:54;13.70;;;12.40;;
10162;SDS011;5123;52.556;13.384;2022-08-19T16:52:45;15.10;;;12.47;;
10162;SDS011;5123;52.556;13.384;2022-08-19T16:55:37;13.17;;;11.77;;
10162;SDS011;5123;52.556;13.384;2022-08-19T16:58:29;13.73;;;12.53;;